createdAt,value
2022-12-29T00:00:16.883Z,52.33
2022-12-29T00:01:21.102Z,52.28
2022-12-29T00:02:25.396Z,52.24
2022-12-29T00:03:30.178Z,52.44
2022-12-29T00:04:34.423Z,52.36
2022-12-29T00:05:38.529Z,52.36
2022-12-29T00:06:42.742Z,52.4
2022-12-29T00:07:46.896Z,52.49
2022-12-29T00:08:51.140Z,52.38
2022-12-29T00:09:55.249Z,52.43
2022-12-29T00:10:59.343Z,52.38
2022-12-29T00:12:03.476Z,52.42
2022-12-29T00:13:07.611Z,52.43
2022-12-29T00:14:11.746Z,52.45
2022-12-29T00:15:15.860Z,52.41
2022-12-29T00:16:22.125Z,52.36
2022-12-29T00:17:26.272Z,52.41
2022-12-29T00:18:30.425Z,52.34
2022-12-29T00:19:35.741Z,52.43
2022-12-29T00:20:39.867Z,52.29
2022-12-29T00:21:43.962Z,52.19
2022-12-29T00:22:48.050Z,52.25
2022-12-29T00:23:52.158Z,52.26
2022-12-29T00:24:56.294Z,52.32
2022-12-29T00:26:00.393Z,52.27
2022-12-29T00:27:04.535Z,52.29
2022-12-29T00:28:09.625Z,52.3
2022-12-29T00:29:13.746Z,52.33
2022-12-29T00:30:19.019Z,52.3
2022-12-29T00:31:23.275Z,52.24
2022-12-29T00:32:27.447Z,52.26
2022-12-29T00:33:31.575Z,52.26
2022-12-29T00:34:36.682Z,52.32
2022-12-29T00:35:40.859Z,52.18
2022-12-29T00:36:45.113Z,52.1
2022-12-29T00:37:49.236Z,52.14
2022-12-29T00:38:53.412Z,52.17
2022-12-29T00:39:57.523Z,52.18
2022-12-29T00:41:01.661Z,52.1
2022-12-29T00:42:05.773Z,52.13
2022-12-29T00:43:09.926Z,52.14
2022-12-29T00:44:14.975Z,52.1
2022-12-29T00:45:20.114Z,52.12
2022-12-29T00:46:24.400Z,52.08
2022-12-29T00:47:28.569Z,52.04
2022-12-29T00:48:32.668Z,52.14
2022-12-29T00:49:36.805Z,52.17
2022-12-29T00:50:40.915Z,52.08
2022-12-29T00:51:45.080Z,52.11
2022-12-29T00:52:49.166Z,52.02
2022-12-29T00:53:53.256Z,52.05
2022-12-29T00:54:57.399Z,52.09
2022-12-29T00:56:01.499Z,52.02
2022-12-29T00:57:05.652Z,52.04
2022-12-29T00:58:09.830Z,52.04
2022-12-29T00:59:13.952Z,52.04
2022-12-29T01:00:19.138Z,52.02
2022-12-29T01:01:23.658Z,52.01
2022-12-29T01:02:28.446Z,52.05
2022-12-29T01:03:32.626Z,52.05
2022-12-29T01:04:36.912Z,52.04
2022-12-29T01:05:41.044Z,52.08
2022-12-29T01:06:45.188Z,51.9
2022-12-29T01:07:49.305Z,52
2022-12-29T01:08:53.418Z,52.09
2022-12-29T01:09:57.536Z,51.88
2022-12-29T01:11:01.666Z,51.86
2022-12-29T01:12:05.836Z,51.88
2022-12-29T01:13:10.031Z,51.83
2022-12-29T01:14:14.131Z,51.81
2022-12-29T01:15:19.245Z,51.75
2022-12-29T01:16:23.456Z,51.67
2022-12-29T01:17:27.594Z,51.5
2022-12-29T01:18:31.688Z,51.38
2022-12-29T01:19:35.928Z,51.28
2022-12-29T01:20:40.033Z,51.24
2022-12-29T01:21:44.145Z,51.15
2022-12-29T01:22:48.270Z,51.06
2022-12-29T01:23:52.414Z,51.01
2022-12-29T01:24:56.555Z,50.98
2022-12-29T01:26:00.657Z,50.92
2022-12-29T01:27:04.775Z,50.83
2022-12-29T01:28:09.121Z,50.78
2022-12-29T01:29:13.256Z,50.74
2022-12-29T01:30:20.199Z,50.68
2022-12-29T01:31:24.815Z,50.59
2022-12-29T01:32:28.974Z,50.61
2022-12-29T01:33:33.097Z,50.55
2022-12-29T01:34:38.389Z,50.48
2022-12-29T01:35:42.541Z,50.44
2022-12-29T01:36:46.655Z,50.38
2022-12-29T01:37:50.760Z,50.31
2022-12-29T01:38:54.884Z,50.26
2022-12-29T01:39:59.016Z,50.19
2022-12-29T01:41:03.147Z,50.18
2022-12-29T01:42:08.301Z,50.1
2022-12-29T01:43:12.409Z,50.08
2022-12-29T01:44:18.678Z,50.04
2022-12-29T01:45:22.827Z,49.94
2022-12-29T01:46:27.178Z,49.83
2022-12-29T01:47:31.291Z,49.8
2022-12-29T01:48:35.420Z,49.8
2022-12-29T01:49:39.543Z,49.7
2022-12-29T01:50:43.693Z,49.66
2022-12-29T01:51:47.816Z,49.62
2022-12-29T01:52:51.923Z,49.53
2022-12-29T01:53:56.046Z,49.49
2022-12-29T01:55:00.172Z,49.5
2022-12-29T01:56:04.331Z,49.53
2022-12-29T01:57:09.072Z,49.55
2022-12-29T01:58:13.211Z,49.6
2022-12-29T01:59:17.328Z,49.66
2022-12-29T02:00:22.595Z,49.69
2022-12-29T02:01:27.350Z,49.79
2022-12-29T02:02:35.636Z,49.86
2022-12-29T02:03:40.138Z,49.95
2022-12-29T02:04:44.269Z,49.99
2022-12-29T02:05:48.397Z,50.07
2022-12-29T02:06:52.505Z,50.11
2022-12-29T02:07:56.666Z,50.17
2022-12-29T02:09:00.767Z,50.24
2022-12-29T02:10:04.999Z,50.24
2022-12-29T02:11:09.195Z,50.24
2022-12-29T02:12:13.322Z,50.18
2022-12-29T02:13:19.179Z,50.13
2022-12-29T02:14:23.283Z,50.07
2022-12-29T02:15:27.372Z,50.03
2022-12-29T02:16:31.844Z,49.97
2022-12-29T02:17:35.965Z,49.9
2022-12-29T02:18:40.069Z,49.83
2022-12-29T02:19:44.194Z,49.78
2022-12-29T02:20:48.315Z,49.71
2022-12-29T02:21:52.472Z,49.66
2022-12-29T02:22:56.605Z,49.61
2022-12-29T02:24:01.053Z,49.52
2022-12-29T02:25:05.187Z,49.5
2022-12-29T02:26:09.367Z,49.49
2022-12-29T02:27:13.505Z,49.4
2022-12-29T02:28:19.137Z,49.39
2022-12-29T02:29:23.318Z,49.3
2022-12-29T02:30:27.403Z,49.32
2022-12-29T02:31:31.635Z,49.35
2022-12-29T02:32:35.785Z,49.38
2022-12-29T02:33:40.031Z,49.42
2022-12-29T02:34:44.174Z,49.5
2022-12-29T02:35:48.274Z,49.58
2022-12-29T02:36:52.429Z,49.66
2022-12-29T02:37:56.603Z,49.7
2022-12-29T02:39:00.723Z,49.74
2022-12-29T02:40:04.906Z,49.79
2022-12-29T02:41:09.272Z,49.86
2022-12-29T02:42:13.425Z,49.94
2022-12-29T02:43:18.949Z,50
2022-12-29T02:44:23.081Z,49.96
2022-12-29T02:45:27.191Z,49.95
2022-12-29T02:46:31.273Z,49.83
2022-12-29T02:47:35.726Z,49.75
2022-12-29T02:48:39.877Z,49.72
2022-12-29T02:49:43.997Z,49.65
2022-12-29T02:50:48.087Z,49.53
2022-12-29T02:51:52.214Z,49.44
2022-12-29T02:52:56.343Z,49.4
2022-12-29T02:54:00.591Z,49.36
2022-12-29T02:55:04.703Z,49.27
2022-12-29T02:56:08.781Z,49.24
2022-12-29T02:57:12.904Z,49.24
2022-12-29T02:58:18.265Z,49.25
2022-12-29T02:59:22.523Z,49.28
2022-12-29T03:00:26.669Z,49.37
2022-12-29T03:01:31.567Z,49.39
2022-12-29T03:02:36.314Z,49.42
2022-12-29T03:03:40.529Z,49.51
2022-12-29T03:04:44.659Z,49.5
2022-12-29T03:05:48.815Z,49.51
2022-12-29T03:06:53.204Z,49.56
2022-12-29T03:07:57.394Z,49.57
2022-12-29T03:09:01.522Z,49.6
2022-12-29T03:10:05.690Z,49.6
2022-12-29T03:11:09.817Z,49.56
2022-12-29T03:12:13.932Z,49.53
2022-12-29T03:13:20.496Z,49.46
2022-12-29T03:14:24.685Z,49.39
2022-12-29T03:15:28.818Z,49.34
2022-12-29T03:16:33.624Z,49.26
2022-12-29T03:17:37.781Z,49.22
2022-12-29T03:18:41.925Z,49.1
2022-12-29T03:19:46.055Z,49.06
2022-12-29T03:20:50.179Z,48.97
2022-12-29T03:21:54.315Z,48.95
2022-12-29T03:22:58.443Z,48.93
2022-12-29T03:24:02.569Z,48.95
2022-12-29T03:25:06.785Z,48.97
2022-12-29T03:26:11.465Z,49
2022-12-29T03:27:16.182Z,49.1
2022-12-29T03:28:22.442Z,49.12
2022-12-29T03:29:26.553Z,49.15
2022-12-29T03:30:30.908Z,49.29
2022-12-29T03:31:35.120Z,49.33
2022-12-29T03:32:39.359Z,49.4
2022-12-29T03:33:43.525Z,49.45
2022-12-29T03:34:47.650Z,49.54
2022-12-29T03:35:51.779Z,49.61
2022-12-29T03:36:55.966Z,49.69
2022-12-29T03:38:00.117Z,49.73
2022-12-29T03:39:04.255Z,49.7
2022-12-29T03:40:08.383Z,49.63
2022-12-29T03:41:12.484Z,49.54
2022-12-29T03:42:16.611Z,49.47
2022-12-29T03:43:22.471Z,49.39
2022-12-29T03:44:26.657Z,49.32
2022-12-29T03:45:30.761Z,49.24
2022-12-29T03:46:35.281Z,49.13
2022-12-29T03:47:39.446Z,49.08
2022-12-29T03:48:43.569Z,49.06
2022-12-29T03:49:47.688Z,49
2022-12-29T03:50:51.838Z,48.94
2022-12-29T03:51:55.969Z,48.86
2022-12-29T03:53:00.200Z,48.81
2022-12-29T03:54:04.534Z,48.73
2022-12-29T03:55:09.357Z,48.74
2022-12-29T03:56:13.514Z,48.7
2022-12-29T03:57:19.075Z,48.67
2022-12-29T03:58:23.289Z,48.64
2022-12-29T03:59:27.423Z,48.56
2022-12-29T04:00:31.559Z,48.59
2022-12-29T04:01:36.550Z,48.57
2022-12-29T04:02:41.544Z,48.53
2022-12-29T04:03:46.072Z,48.49
2022-12-29T04:04:50.313Z,48.45
2022-12-29T04:05:54.422Z,48.45
2022-12-29T04:06:58.573Z,48.37
2022-12-29T04:08:02.749Z,48.41
2022-12-29T04:09:06.889Z,48.42
2022-12-29T04:10:11.791Z,48.34
2022-12-29T04:11:16.704Z,48.33
2022-12-29T04:12:22.638Z,48.31
2022-12-29T04:13:27.282Z,48.29
2022-12-29T04:14:31.493Z,48.28
2022-12-29T04:15:35.827Z,48.34
2022-12-29T04:16:40.092Z,48.41
2022-12-29T04:17:44.236Z,48.43
2022-12-29T04:18:48.383Z,48.49
2022-12-29T04:19:52.570Z,48.5
2022-12-29T04:20:56.697Z,48.57
2022-12-29T04:22:00.820Z,48.62
2022-12-29T04:23:04.993Z,48.67
2022-12-29T04:24:09.463Z,48.76
2022-12-29T04:25:13.652Z,48.86
2022-12-29T04:26:18.589Z,48.96
2022-12-29T04:27:22.676Z,49.01
2022-12-29T04:28:27.072Z,49.04
2022-12-29T04:29:31.302Z,49.08
2022-12-29T04:30:36.294Z,49.14
2022-12-29T04:31:40.638Z,49.19
2022-12-29T04:32:44.833Z,49.24
2022-12-29T04:33:48.978Z,49.32
2022-12-29T04:34:53.094Z,49.39
2022-12-29T04:35:57.242Z,49.48
2022-12-29T04:37:01.345Z,49.53
2022-12-29T04:38:05.452Z,49.57
2022-12-29T04:39:10.089Z,49.65
2022-12-29T04:40:14.282Z,49.69
2022-12-29T04:41:18.979Z,49.76
2022-12-29T04:42:23.081Z,49.79
2022-12-29T04:43:27.197Z,49.82
2022-12-29T04:44:31.331Z,49.86
2022-12-29T04:45:36.506Z,49.9
2022-12-29T04:46:40.802Z,49.93
2022-12-29T04:47:45.474Z,49.99
2022-12-29T04:48:49.622Z,49.98
2022-12-29T04:49:53.748Z,50.01
2022-12-29T04:50:58.260Z,50.03
2022-12-29T04:52:02.622Z,50.04
2022-12-29T04:53:06.799Z,50.05
2022-12-29T04:54:10.949Z,50.07
2022-12-29T04:55:15.569Z,50.11
2022-12-29T04:56:20.395Z,50.14
2022-12-29T04:57:24.572Z,50.2
2022-12-29T04:58:28.663Z,50.26
2022-12-29T04:59:32.762Z,50.32
2022-12-29T05:00:36.909Z,50.35
2022-12-29T05:01:41.512Z,50.41
2022-12-29T05:02:47.088Z,50.44
2022-12-29T05:03:51.523Z,50.41
2022-12-29T05:04:55.676Z,50.46
2022-12-29T05:05:59.822Z,50.46
2022-12-29T05:07:03.966Z,50.47
2022-12-29T05:08:08.127Z,50.53
2022-12-29T05:09:12.274Z,50.65
2022-12-29T05:10:16.464Z,50.58
2022-12-29T05:11:22.536Z,50.6
2022-12-29T05:12:27.095Z,50.67
2022-12-29T05:13:31.277Z,50.66
2022-12-29T05:14:35.422Z,50.69
2022-12-29T05:15:39.733Z,50.62
2022-12-29T05:16:44.037Z,50.79
2022-12-29T05:17:57.010Z,50.71
2022-12-29T05:19:01.336Z,50.79
2022-12-29T05:20:05.536Z,50.63
2022-12-29T05:21:09.767Z,50.66
2022-12-29T05:22:13.979Z,50.58
2022-12-29T05:23:20.643Z,50.56
2022-12-29T05:24:24.949Z,50.55
2022-12-29T05:25:29.344Z,50.53
2022-12-29T05:26:33.677Z,50.46
2022-12-29T05:27:38.064Z,50.38
2022-12-29T05:28:42.301Z,50.29
2022-12-29T05:29:46.511Z,50.21
2022-12-29T05:30:50.756Z,50.09
2022-12-29T05:31:55.135Z,49.95
2022-12-29T05:32:59.297Z,49.75
2022-12-29T05:34:03.519Z,49.59
2022-12-29T05:35:08.556Z,49.46
2022-12-29T05:36:12.830Z,49.32
2022-12-29T05:37:19.344Z,49.24
2022-12-29T05:38:23.523Z,49.21
2022-12-29T05:39:27.675Z,49.17
2022-12-29T05:40:31.858Z,49.19
2022-12-29T05:41:36.956Z,49.16
2022-12-29T05:42:41.080Z,49.16
2022-12-29T05:43:45.189Z,49.29
2022-12-29T05:44:49.316Z,49.37
2022-12-29T05:45:53.478Z,49.45
2022-12-29T05:46:57.993Z,49.48
2022-12-29T05:48:02.154Z,49.5
2022-12-29T05:49:06.304Z,49.51
2022-12-29T05:50:10.386Z,49.55
2022-12-29T05:51:28.618Z,49.54
2022-12-29T05:52:32.894Z,49.59
2022-12-29T05:53:37.698Z,49.63
2022-12-29T05:54:41.863Z,49.71
2022-12-29T05:55:50.593Z,49.75
2022-12-29T05:56:54.835Z,49.78
2022-12-29T05:57:59.060Z,49.83
2022-12-29T05:59:03.193Z,49.83
2022-12-29T06:00:07.479Z,49.87
2022-12-29T06:01:11.687Z,49.93
2022-12-29T06:02:16.567Z,49.95
2022-12-29T06:03:22.310Z,49.98
2022-12-29T06:04:26.566Z,50.02
2022-12-29T06:05:30.868Z,50.04
2022-12-29T06:06:35.160Z,50.03
2022-12-29T06:07:39.420Z,50.05
2022-12-29T06:08:43.669Z,50.08
2022-12-29T06:09:47.949Z,50.12
2022-12-29T06:10:52.180Z,50.13
2022-12-29T06:11:56.412Z,50.16
2022-12-29T06:13:00.642Z,50.18
2022-12-29T06:14:04.849Z,50.37
2022-12-29T06:15:09.164Z,50.35
2022-12-29T06:16:13.633Z,50.37
2022-12-29T06:17:19.183Z,50.35
2022-12-29T06:18:23.419Z,50.34
2022-12-29T06:19:27.603Z,50.35
2022-12-29T06:20:31.768Z,50.4
2022-12-29T06:21:35.982Z,50.39
2022-12-29T06:22:40.214Z,50.41
2022-12-29T06:23:44.379Z,50.39
2022-12-29T06:24:48.628Z,50.39
2022-12-29T06:25:52.807Z,50.4
2022-12-29T06:26:56.953Z,50.42
2022-12-29T06:28:01.206Z,50.42
2022-12-29T06:29:05.397Z,50.47
2022-12-29T06:30:09.620Z,50.5
2022-12-29T06:31:14.183Z,50.49
2022-12-29T06:32:18.510Z,50.67
2022-12-29T06:33:22.664Z,50.8
2022-12-29T06:34:26.858Z,50.86
2022-12-29T06:35:31.032Z,50.98
2022-12-29T06:36:35.221Z,50.95
2022-12-29T06:37:39.417Z,50.91
2022-12-29T06:38:43.516Z,50.87
2022-12-29T06:39:47.708Z,51.02
2022-12-29T06:40:51.852Z,51.01
2022-12-29T06:41:56.383Z,50.88
2022-12-29T06:43:00.811Z,50.97
2022-12-29T06:44:04.957Z,50.99
2022-12-29T06:45:09.239Z,51.05
2022-12-29T06:46:13.939Z,51.05
2022-12-29T06:47:18.462Z,50.9
2022-12-29T06:48:22.678Z,50.82
2022-12-29T06:49:26.949Z,50.84
2022-12-29T06:50:31.127Z,50.82
2022-12-29T06:51:35.294Z,50.69
2022-12-29T06:52:39.567Z,50.7
2022-12-29T06:53:46.926Z,50.63
2022-12-29T06:54:51.160Z,50.69
2022-12-29T06:55:55.368Z,50.65
2022-12-29T06:56:59.513Z,50.8
2022-12-29T06:58:03.731Z,50.73
2022-12-29T06:59:08.217Z,50.74
2022-12-29T07:00:12.505Z,50.81
2022-12-29T07:01:16.927Z,50.62
2022-12-29T07:02:22.026Z,50.79
2022-12-29T07:03:26.697Z,50.61
2022-12-29T07:04:30.957Z,50.74
2022-12-29T07:05:35.274Z,50.78
2022-12-29T07:06:39.586Z,50.85
2022-12-29T07:07:43.882Z,50.88
2022-12-29T07:08:48.125Z,50.83
2022-12-29T07:09:52.303Z,50.89
2022-12-29T07:10:56.458Z,50.79
2022-12-29T07:12:00.822Z,50.83
2022-12-29T07:13:05.041Z,50.77
2022-12-29T07:14:09.347Z,50.96
2022-12-29T07:15:13.707Z,50.83
2022-12-29T07:16:19.275Z,50.78
2022-12-29T07:17:23.521Z,50.77
2022-12-29T07:18:27.799Z,50.9
2022-12-29T07:19:32.136Z,50.88
2022-12-29T07:20:36.382Z,50.93
2022-12-29T07:21:48.030Z,50.98
2022-12-29T07:22:52.315Z,50.99
2022-12-29T07:23:56.527Z,51.11
2022-12-29T07:25:00.793Z,50.92
2022-12-29T07:26:05.022Z,50.95
2022-12-29T07:27:09.174Z,50.89
2022-12-29T07:28:13.383Z,50.89
2022-12-29T07:29:18.276Z,50.97
2022-12-29T07:30:22.444Z,51.01
2022-12-29T07:31:26.776Z,51.01
2022-12-29T07:32:31.093Z,51.06
2022-12-29T07:33:35.809Z,51.08
2022-12-29T07:34:39.948Z,51.02
2022-12-29T07:35:44.240Z,51.03
2022-12-29T07:36:48.464Z,50.93
2022-12-29T07:37:52.655Z,50.95
2022-12-29T07:38:56.999Z,51.04
2022-12-29T07:40:01.246Z,51.01
2022-12-29T07:41:05.507Z,51.01
2022-12-29T07:42:09.708Z,51.06
2022-12-29T07:43:13.907Z,51.1
2022-12-29T07:44:19.555Z,51.12
2022-12-29T07:45:23.760Z,51.08
2022-12-29T07:46:59.075Z,51.03
2022-12-29T07:48:03.613Z,51.09
2022-12-29T07:49:08.012Z,51.17
2022-12-29T07:50:12.249Z,51.17
2022-12-29T07:51:16.461Z,51.17
2022-12-29T07:52:20.739Z,51.17
2022-12-29T07:53:24.987Z,51.19
2022-12-29T07:54:29.192Z,51.17
2022-12-29T07:55:33.552Z,51.16
2022-12-29T07:56:37.854Z,51.15
2022-12-29T07:57:42.220Z,51.12
2022-12-29T07:58:46.412Z,51.11
2022-12-29T07:59:50.661Z,51.05
2022-12-29T08:00:54.907Z,51.03
2022-12-29T08:01:59.539Z,51.06
2022-12-29T08:03:03.805Z,51.14
2022-12-29T08:04:08.240Z,51.12
2022-12-29T08:05:12.423Z,51.11
2022-12-29T08:06:16.608Z,51.12
2022-12-29T08:07:20.730Z,51.14
2022-12-29T08:08:24.857Z,51.12
2022-12-29T08:09:29.255Z,51.11
2022-12-29T08:10:33.404Z,51.12
2022-12-29T08:11:37.515Z,51.25
2022-12-29T08:12:41.624Z,51.18
2022-12-29T08:13:45.773Z,51.11
2022-12-29T08:14:49.860Z,51.11
2022-12-29T08:15:54.141Z,51.12
2022-12-29T08:16:58.294Z,51.06
2022-12-29T08:18:02.408Z,51.11
2022-12-29T08:19:06.595Z,51.19
2022-12-29T08:20:10.758Z,51.14
2022-12-29T08:21:14.892Z,51.1
2022-12-29T08:22:19.017Z,51.13
2022-12-29T08:23:23.779Z,51.16
2022-12-29T08:24:28.514Z,51.13
2022-12-29T08:25:32.623Z,51.09
2022-12-29T08:26:36.829Z,51.07
2022-12-29T08:27:40.941Z,51.1
2022-12-29T08:28:45.428Z,51.1
2022-12-29T08:29:49.634Z,51.1
2022-12-29T08:30:53.932Z,51.09
2022-12-29T08:31:58.098Z,51.09
2022-12-29T08:33:02.243Z,51.02
2022-12-29T08:34:06.430Z,51.09
2022-12-29T08:35:10.552Z,51.06
2022-12-29T08:36:14.660Z,50.98
2022-12-29T08:37:18.816Z,50.94
2022-12-29T08:38:22.964Z,51.04
2022-12-29T08:39:27.080Z,50.94
2022-12-29T08:40:31.170Z,50.91
2022-12-29T08:41:35.404Z,50.91
2022-12-29T08:42:39.531Z,51.03
2022-12-29T08:43:43.684Z,51.03
2022-12-29T08:44:47.884Z,51.11
2022-12-29T08:45:52.025Z,51.08
2022-12-29T08:46:56.333Z,51.02
2022-12-29T08:48:00.506Z,50.95
2022-12-29T08:49:04.671Z,51.12
2022-12-29T08:50:08.812Z,51.15
2022-12-29T08:51:12.946Z,51.13
2022-12-29T08:52:17.054Z,51.06
2022-12-29T08:53:21.202Z,51.16
2022-12-29T08:54:25.713Z,51.14
2022-12-29T08:55:29.857Z,51.01
2022-12-29T08:56:33.953Z,51.1
2022-12-29T08:57:38.252Z,51.05
2022-12-29T08:58:42.399Z,51
2022-12-29T19:00:25.676Z,44.96
2022-12-29T19:01:30.545Z,44.99
2022-12-29T19:02:34.743Z,44.95
2022-12-29T19:03:39.121Z,44.96
2022-12-29T19:04:43.252Z,45
2022-12-29T19:05:47.373Z,45.04
2022-12-29T19:06:51.635Z,45.16
2022-12-29T19:07:55.780Z,45.16
2022-12-29T19:08:59.896Z,45.29
2022-12-29T19:10:04.038Z,45.39
2022-12-29T19:11:08.173Z,45.43
2022-12-29T19:12:12.277Z,45.52
2022-12-29T19:13:16.498Z,45.6
2022-12-29T19:14:20.643Z,45.69
2022-12-29T19:15:24.770Z,45.78
2022-12-29T19:16:29.120Z,45.88
2022-12-29T19:17:33.266Z,45.96
2022-12-29T19:19:09.166Z,45.97
2022-12-29T19:20:13.715Z,45.98
2022-12-29T19:21:17.824Z,45.92
2022-12-29T19:22:21.980Z,45.88
2022-12-29T19:23:26.083Z,45.84
2022-12-29T19:24:30.197Z,45.73
2022-12-29T19:25:34.345Z,45.75
2022-12-29T19:26:39.054Z,45.66
2022-12-29T19:27:43.163Z,45.64
2022-12-29T19:28:47.308Z,45.53
2022-12-29T19:29:51.463Z,45.8
2022-12-29T19:30:59.094Z,45.64
2022-12-29T19:32:03.626Z,45.59
2022-12-29T19:33:11.784Z,45.66
2022-12-29T19:34:15.991Z,45.67
2022-12-29T19:35:20.135Z,45.73
2022-12-29T19:36:24.267Z,45.78
2022-12-29T19:37:28.424Z,45.83
2022-12-29T19:38:32.617Z,45.94
2022-12-29T19:39:36.725Z,45.76
2022-12-29T19:40:40.871Z,45.71
2022-12-29T19:41:45.016Z,45.71
2022-12-29T19:42:49.132Z,45.81
2022-12-29T19:43:53.269Z,45.89
2022-12-29T19:44:57.410Z,45.95
2022-12-29T19:46:01.684Z,46.04
2022-12-29T19:47:06.016Z,46.09
2022-12-29T19:48:10.182Z,46.16
2022-12-29T19:49:14.268Z,46.06
2022-12-29T19:50:18.464Z,45.94
2022-12-29T19:51:22.675Z,46.01
2022-12-29T19:52:26.984Z,46.09
2022-12-29T19:53:31.235Z,46.17
2022-12-29T19:54:35.350Z,46.22
2022-12-29T19:55:39.930Z,46.3
2022-12-29T19:56:44.111Z,46.35
2022-12-29T19:57:48.274Z,46.37
2022-12-29T19:58:52.458Z,46.42
2022-12-29T19:59:56.606Z,46.47
2022-12-29T20:01:01.235Z,46.53
2022-12-29T20:02:05.891Z,46.57
2022-12-29T20:03:10.971Z,46.62
2022-12-29T20:04:15.355Z,46.64
2022-12-29T20:05:19.503Z,46.7
2022-12-29T20:06:23.758Z,46.76
2022-12-29T20:07:28.224Z,46.77
2022-12-29T20:08:32.371Z,46.89
2022-12-29T20:09:36.596Z,46.9
2022-12-29T20:10:40.762Z,46.89
2022-12-29T20:11:45.009Z,46.92
2022-12-29T20:12:49.132Z,46.97
2022-12-29T20:13:53.302Z,47
2022-12-29T20:14:57.503Z,47.02
2022-12-29T20:16:02.316Z,47.08
2022-12-29T20:17:13.538Z,47.05
2022-12-29T20:18:18.371Z,47.14
2022-12-29T20:19:23.587Z,47.16
2022-12-29T20:20:27.699Z,47.2
2022-12-29T20:21:31.846Z,47.2
2022-12-29T20:22:35.967Z,47.25
2022-12-29T20:23:40.532Z,47.24
2022-12-29T20:25:11.300Z,47.25
2022-12-29T20:26:30.193Z,47.26
2022-12-29T20:27:34.357Z,47.42
2022-12-29T20:28:38.469Z,47.4
2022-12-29T20:29:42.568Z,47.4
2022-12-29T20:30:46.701Z,47.37
2022-12-29T20:31:51.045Z,47.4
2022-12-29T20:32:55.188Z,47.4
2022-12-29T20:33:59.357Z,47.43
2022-12-29T20:35:03.446Z,47.41
2022-12-29T20:36:07.591Z,47.4
2022-12-29T20:37:11.704Z,47.42
2022-12-29T20:38:15.843Z,47.41
2022-12-29T20:39:19.982Z,47.46
2022-12-29T20:40:24.114Z,47.45
2022-12-29T20:41:28.293Z,47.46
2022-12-29T20:42:32.395Z,47.48
2022-12-29T20:43:36.556Z,47.46
2022-12-29T20:44:40.683Z,47.51
2022-12-29T20:45:45.237Z,47.54
2022-12-29T20:46:49.612Z,47.54
2022-12-29T20:47:53.766Z,47.57
2022-12-29T20:48:57.948Z,47.57
2022-12-29T20:50:02.204Z,47.55
2022-12-29T20:51:06.343Z,47.58
2022-12-29T20:52:10.472Z,47.55
2022-12-29T20:53:14.646Z,47.57
2022-12-29T20:54:18.833Z,47.58
2022-12-29T20:55:22.951Z,47.6
2022-12-29T20:56:27.094Z,47.54
2022-12-29T20:58:24.537Z,47.62
2022-12-29T20:59:30.546Z,47.67
2022-12-29T21:00:34.777Z,47.64
2022-12-29T21:01:39.460Z,47.65
2022-12-29T21:02:44.146Z,47.68
2022-12-29T21:03:48.464Z,47.63
2022-12-29T21:05:26.742Z,47.69
2022-12-29T21:06:31.170Z,47.68
2022-12-29T21:07:35.349Z,47.75
2022-12-29T21:08:39.482Z,47.72
2022-12-29T21:09:43.671Z,47.65
2022-12-29T21:10:47.805Z,47.7
2022-12-29T21:11:51.944Z,47.67
2022-12-29T21:12:56.105Z,47.73
2022-12-29T21:14:03.326Z,47.71
2022-12-29T21:15:07.568Z,47.69
2022-12-29T21:16:11.949Z,47.71
2022-12-29T21:17:16.101Z,47.72
2022-12-29T21:18:20.232Z,47.73
2022-12-29T21:19:24.328Z,47.75
2022-12-29T21:20:28.519Z,47.77
2022-12-29T21:21:32.675Z,47.76
2022-12-29T21:22:36.810Z,47.75
2022-12-29T21:23:41.096Z,47.77
2022-12-29T21:24:45.442Z,47.75
2022-12-29T21:25:49.634Z,47.73
2022-12-29T21:26:53.755Z,47.74
2022-12-29T21:27:57.875Z,47.75
2022-12-29T21:29:02.085Z,47.77
2022-12-29T21:30:06.219Z,47.76
2022-12-29T21:31:10.602Z,47.77
2022-12-29T21:32:14.880Z,47.77
2022-12-29T21:33:19.031Z,47.75
2022-12-29T21:34:23.197Z,47.79
2022-12-29T21:35:27.306Z,48.07
2022-12-29T21:36:31.473Z,48.04
2022-12-29T21:37:35.629Z,47.96
2022-12-29T21:38:39.795Z,47.97
2022-12-29T21:39:43.976Z,48.04
2022-12-29T21:40:48.147Z,48.04
2022-12-29T21:41:52.257Z,48.05
2022-12-29T21:42:56.400Z,48.06
2022-12-29T21:44:00.552Z,48
2022-12-29T21:45:07.858Z,48.02
2022-12-29T21:46:12.269Z,47.98
2022-12-29T21:47:16.451Z,48.06
2022-12-29T21:48:20.621Z,48.27
2022-12-29T21:49:24.761Z,48.74
2022-12-29T21:50:28.855Z,48.76
2022-12-29T21:51:33.046Z,48.72
2022-12-29T21:52:37.208Z,48.85
2022-12-29T21:53:41.427Z,48.87
2022-12-29T21:54:45.616Z,48.85
2022-12-29T21:55:49.764Z,48.83
2022-12-29T21:56:53.895Z,48.75
2022-12-29T21:57:58.326Z,48.81
2022-12-29T21:59:02.532Z,48.9
2022-12-29T22:00:06.961Z,48.89
2022-12-29T22:01:11.382Z,48.87
2022-12-29T22:02:16.367Z,48.84
2022-12-29T22:03:25.834Z,48.85
2022-12-29T22:04:30.219Z,48.81
2022-12-29T22:05:34.411Z,48.91
2022-12-29T22:06:38.518Z,48.89
2022-12-29T22:07:42.618Z,48.83
2022-12-29T22:08:46.775Z,48.83
2022-12-29T22:09:50.891Z,48.88
2022-12-29T22:10:55.081Z,48.83
2022-12-29T22:11:59.191Z,48.96
2022-12-29T22:13:03.459Z,48.96
2022-12-29T22:14:07.630Z,48.97
2022-12-29T22:15:11.767Z,48.98
2022-12-29T22:16:16.274Z,48.96
2022-12-29T22:17:28.899Z,48.99
2022-12-29T22:18:33.769Z,48.95
2022-12-29T22:19:37.896Z,48.53
2022-12-29T22:20:42.081Z,48.24
2022-12-29T22:21:46.217Z,47.7
2022-12-29T22:22:50.332Z,47.9
2022-12-29T22:23:55.202Z,48.33
2022-12-29T22:24:59.340Z,48.43
2022-12-29T22:26:03.705Z,48.43
2022-12-29T22:27:07.981Z,48.43
2022-12-29T22:28:12.093Z,48.35
2022-12-29T22:29:16.222Z,48.31
2022-12-29T22:30:20.336Z,48.28
2022-12-29T22:31:24.871Z,48.23
2022-12-29T22:32:29.052Z,48.23
2022-12-29T22:33:33.343Z,48.19
2022-12-29T22:34:37.453Z,48.17
2022-12-29T22:35:41.587Z,48.11
2022-12-29T22:36:45.708Z,48.1
2022-12-29T22:37:49.948Z,48.15
2022-12-29T22:38:54.142Z,48.16
2022-12-29T22:39:58.303Z,48.2
2022-12-29T22:41:02.443Z,48.22
2022-12-29T22:42:06.662Z,48.33
2022-12-29T22:43:15.117Z,48.43
2022-12-29T22:44:19.252Z,48.53
2022-12-29T22:45:23.392Z,48.37
2022-12-29T22:46:27.759Z,48.28
2022-12-29T22:47:31.985Z,48.29
2022-12-29T22:48:36.105Z,48.34
2022-12-29T22:49:40.232Z,48.28
2022-12-29T22:50:44.334Z,48.31
2022-12-29T22:51:48.457Z,48.36
2022-12-29T22:52:52.573Z,48.35
2022-12-29T22:53:56.705Z,48.44
2022-12-29T22:55:08.356Z,48.52
2022-12-29T22:56:12.807Z,48.56
2022-12-29T22:57:16.901Z,48.64
2022-12-29T22:58:21.021Z,48.72
2022-12-29T22:59:25.163Z,48.65
2022-12-29T23:00:29.329Z,48.64
2022-12-29T23:01:34.126Z,48.66
2022-12-29T23:02:39.188Z,48.67
2022-12-29T23:03:43.946Z,48.65
2022-12-29T23:05:06.906Z,48.64
2022-12-29T23:06:11.226Z,48.69
2022-12-29T23:07:15.511Z,48.69
2022-12-29T23:08:19.615Z,48.7
2022-12-29T23:09:23.766Z,48.76
2022-12-29T23:10:27.965Z,48.77
2022-12-29T23:11:32.068Z,48.83
2022-12-29T23:12:36.262Z,48.78
2022-12-29T23:13:40.358Z,48.84
2022-12-29T23:14:44.479Z,48.86
2022-12-29T23:15:48.898Z,48.85
2022-12-29T23:16:53.052Z,48.86
2022-12-29T23:17:57.175Z,48.81
2022-12-29T23:19:01.343Z,48.81
2022-12-29T23:20:05.531Z,48.79
2022-12-29T23:21:09.687Z,48.64
2022-12-29T23:22:13.804Z,48.7
2022-12-29T23:23:17.906Z,48.79
2022-12-29T23:24:22.031Z,48.82
2022-12-29T23:25:26.306Z,48.78
2022-12-29T23:26:30.586Z,48.79
2022-12-29T23:27:34.725Z,48.79
2022-12-29T23:28:38.889Z,48.75
2022-12-29T23:29:43.040Z,48.73
2022-12-29T23:30:47.190Z,48.77
2022-12-29T23:31:51.603Z,48.8
2022-12-29T23:32:55.772Z,48.79
2022-12-29T23:33:59.883Z,48.79
2022-12-29T23:35:04.006Z,48.82
2022-12-29T23:36:08.147Z,48.76
2022-12-29T23:37:12.317Z,48.81
2022-12-29T23:38:16.660Z,48.74
2022-12-29T23:39:20.772Z,48.79
2022-12-29T23:40:24.895Z,48.65
2022-12-29T23:41:29.058Z,48.73
2022-12-29T23:42:33.273Z,48.66
2022-12-29T23:43:37.652Z,48.67
2022-12-29T23:44:41.804Z,48.69
2022-12-29T23:45:52.529Z,48.69
2022-12-29T23:46:56.878Z,48.67
2022-12-29T23:48:01.045Z,48.73
2022-12-29T23:49:05.266Z,48.74
2022-12-29T23:50:09.394Z,48.8
2022-12-29T23:51:13.525Z,48.86
2022-12-29T23:52:17.635Z,48.89
2022-12-29T23:53:21.750Z,48.79
2022-12-29T23:54:25.878Z,48.78
2022-12-29T23:55:29.979Z,48.8
2022-12-29T23:56:34.113Z,48.77